DRK201 VIDP-VQPR
Flight info
| Callsign | DRK201 |
|---|---|
| Flight time | 2h 7m |
| Altitude | 37000 |
| Route | ALI DCT KTM B345 TUMLI G348 SUBSU |
| Aircraft | A319/M-SDE3FGHIRWY/LB1 |
Departure
| Time | 2025-09-09 23:58 |
|---|---|
| Airport | Indira Gandhi International Airport (VIDP) |
Arrival
| Time | 2025-09-10 02:06 |
|---|---|
| Airport | Paro International Airport (VQPR) |
| Time | Latitude | Longitude | Altitude | Speed | Heading |
|---|---|---|---|---|---|
| 2025-09-09 23:21 | 28.55868 | 77.08265 | 751 ft | 0 kts | 57° |
| 2025-09-09 23:44 | 28.55867 | 77.08264 | 750 ft | 1 kts | 57° |
| 2025-09-09 23:45 | 28.55848 | 77.08229 | 746 ft | 3 kts | 57° |
| 2025-09-09 23:45 | 28.55809 | 77.08178 | 748 ft | 3 kts | 22° |
| 2025-09-09 23:46 | 28.55790 | 77.08174 | 749 ft | 0 kts | 353° |
| 2025-09-09 23:49 | 28.55797 | 77.08173 | 748 ft | 4 kts | 353° |
| 2025-09-09 23:50 | 28.55980 | 77.07967 | 749 ft | 14 kts | 195° |
| 2025-09-09 23:50 | 28.55858 | 77.07932 | 750 ft | 20 kts | 194° |
| 2025-09-09 23:51 | 28.55579 | 77.07849 | 749 ft | 21 kts | 195° |
| 2025-09-09 23:51 | 28.55308 | 77.07771 | 748 ft | 13 kts | 191° |
| 2025-09-09 23:52 | 28.55138 | 77.07746 | 751 ft | 12 kts | 138° |
| 2025-09-09 23:52 | 28.55067 | 77.08032 | 748 ft | 23 kts | 105° |
| 2025-09-09 23:52 | 28.55027 | 77.08213 | 749 ft | 24 kts | 105° |
| 2025-09-09 23:53 | 28.54840 | 77.09021 | 750 ft | 27 kts | 104° |
| 2025-09-09 23:54 | 28.54791 | 77.09230 | 750 ft | 27 kts | 104° |
| 2025-09-09 23:54 | 28.54695 | 77.09647 | 747 ft | 27 kts | 105° |
| 2025-09-09 23:55 | 28.54598 | 77.10070 | 751 ft | 28 kts | 105° |
| 2025-09-09 23:55 | 28.54550 | 77.10280 | 750 ft | 27 kts | 104° |
| 2025-09-09 23:56 | 28.54396 | 77.10572 | 750 ft | 10 kts | 192° |
| 2025-09-09 23:56 | 28.54294 | 77.10546 | 752 ft | 7 kts | 193° |
| 2025-09-09 23:57 | 28.54222 | 77.10495 | 752 ft | 5 kts | 286° |
| 2025-09-09 23:57 | 28.54560 | 77.08913 | 753 ft | 158 kts | 283° |
| 2025-09-09 23:58 | 28.55116 | 77.06395 | 1953 ft | 164 kts | 281° |
| 2025-09-09 23:58 | 28.54850 | 77.05117 | 2460 ft | 181 kts | 241° |
| 2025-09-09 23:59 | 28.52171 | 77.03839 | 2977 ft | 243 kts | 195° |
| 2025-09-09 23:59 | 28.48565 | 77.03050 | 4083 ft | 277 kts | 194° |
| 2025-09-10 00:00 | 28.44711 | 77.02207 | 5799 ft | 286 kts | 194° |
| 2025-09-10 00:00 | 28.40746 | 77.01303 | 7393 ft | 296 kts | 194° |
| 2025-09-10 00:01 | 28.36687 | 77.00349 | 9063 ft | 301 kts | 193° |
| 2025-09-10 00:01 | 28.34626 | 76.99862 | 9868 ft | 304 kts | 193° |
| 2025-09-10 00:02 | 28.28329 | 76.98446 | 12086 ft | 314 kts | 185° |
| 2025-09-10 00:02 | 28.24130 | 76.99795 | 13353 ft | 332 kts | 143° |
| 2025-09-10 00:03 | 28.21348 | 77.04311 | 13701 ft | 373 kts | 116° |
| 2025-09-10 00:03 | 28.18932 | 77.09628 | 14743 ft | 384 kts | 117° |
| 2025-09-10 00:04 | 28.16441 | 77.15027 | 15943 ft | 390 kts | 117° |
| 2025-09-10 00:04 | 28.15177 | 77.17754 | 16540 ft | 393 kts | 117° |
| 2025-09-10 00:04 | 28.12616 | 77.23274 | 17721 ft | 399 kts | 117° |
| 2025-09-10 00:05 | 28.10007 | 77.28890 | 18782 ft | 406 kts | 117° |
| 2025-09-10 00:06 | 28.06028 | 77.37437 | 20332 ft | 413 kts | 118° |
| 2025-09-10 00:06 | 28.03323 | 77.43233 | 21348 ft | 419 kts | 118° |
| 2025-09-10 00:07 | 28.00593 | 77.49093 | 22316 ft | 424 kts | 118° |
| 2025-09-10 00:07 | 27.97846 | 77.55047 | 23239 ft | 430 kts | 115° |
| 2025-09-10 00:08 | 27.96092 | 77.61544 | 23994 ft | 435 kts | 105° |
| 2025-09-10 00:08 | 27.94552 | 77.68207 | 24725 ft | 440 kts | 105° |
| 2025-09-10 00:09 | 27.92995 | 77.74890 | 25432 ft | 445 kts | 105° |
| 2025-09-10 00:11 | 27.86534 | 78.02513 | 28243 ft | 464 kts | 105° |
| 2025-09-10 00:13 | 27.82982 | 78.31684 | 30830 ft | 476 kts | 90° |
| 2025-09-10 00:15 | 27.83038 | 78.61365 | 33912 ft | 469 kts | 91° |
| 2025-09-10 00:17 | 27.83046 | 78.90520 | 36695 ft | 461 kts | 91° |
| 2025-09-10 00:19 | 27.82977 | 79.19364 | 36756 ft | 458 kts | 91° |
| 2025-09-10 00:21 | 27.82861 | 79.48117 | 36761 ft | 457 kts | 91° |
| 2025-09-10 00:23 | 27.82681 | 79.75612 | 36758 ft | 457 kts | 91° |
| 2025-09-10 00:25 | 27.82443 | 80.04352 | 36763 ft | 458 kts | 91° |
| 2025-09-10 00:27 | 27.82149 | 80.33145 | 36761 ft | 459 kts | 91° |
| 2025-09-10 00:28 | 27.81837 | 80.58397 | 36766 ft | 460 kts | 91° |
| 2025-09-10 00:31 | 27.81373 | 80.90899 | 36776 ft | 461 kts | 91° |
| 2025-09-10 00:33 | 27.80894 | 81.19858 | 36790 ft | 461 kts | 91° |
| 2025-09-10 00:35 | 27.80351 | 81.48777 | 36790 ft | 461 kts | 92° |
| 2025-09-10 00:37 | 27.79751 | 81.77701 | 36784 ft | 462 kts | 92° |
| 2025-09-10 00:39 | 27.79087 | 82.06695 | 36788 ft | 462 kts | 92° |
| 2025-09-10 00:41 | 27.78365 | 82.35684 | 36800 ft | 462 kts | 92° |
| 2025-09-10 00:43 | 27.77578 | 82.64699 | 36816 ft | 462 kts | 92° |
| 2025-09-10 00:45 | 27.76735 | 82.93716 | 36821 ft | 462 kts | 92° |
| 2025-09-10 00:47 | 27.75838 | 83.22677 | 36832 ft | 463 kts | 92° |
| 2025-09-10 00:48 | 27.74990 | 83.48076 | 36854 ft | 463 kts | 92° |
| 2025-09-10 00:51 | 27.73846 | 83.80727 | 36869 ft | 462 kts | 92° |
| 2025-09-10 00:53 | 27.72749 | 84.09679 | 36882 ft | 462 kts | 92° |
| 2025-09-10 00:55 | 27.71606 | 84.38648 | 36901 ft | 462 kts | 92° |
| 2025-09-10 00:57 | 27.70400 | 84.67578 | 36931 ft | 461 kts | 93° |
| 2025-09-10 00:59 | 27.69135 | 84.96448 | 36977 ft | 460 kts | 93° |
| 2025-09-10 01:00 | 27.68001 | 85.21251 | 37027 ft | 459 kts | 94° |
| 2025-09-10 01:03 | 27.63897 | 85.53100 | 37029 ft | 457 kts | 102° |
| 2025-09-10 01:04 | 27.59224 | 85.77582 | 37050 ft | 456 kts | 102° |
| 2025-09-10 01:07 | 27.53148 | 86.08960 | 37063 ft | 455 kts | 102° |
| 2025-09-10 01:09 | 27.47737 | 86.36767 | 37088 ft | 454 kts | 102° |
| 2025-09-10 01:11 | 27.42641 | 86.63360 | 37103 ft | 453 kts | 102° |
| 2025-09-10 01:13 | 27.37260 | 86.90970 | 37078 ft | 452 kts | 102° |
| 2025-09-10 01:15 | 27.31684 | 87.18549 | 37059 ft | 452 kts | 110° |
| 2025-09-10 01:17 | 27.18801 | 87.42816 | 37040 ft | 452 kts | 121° |
| 2025-09-10 01:19 | 27.05548 | 87.66764 | 37027 ft | 451 kts | 121° |
| 2025-09-10 01:20 | 26.93912 | 87.87642 | 36245 ft | 451 kts | 121° |
| 2025-09-10 01:23 | 26.78837 | 88.14570 | 34155 ft | 457 kts | 121° |
| 2025-09-10 01:24 | 26.72074 | 88.37407 | 32433 ft | 462 kts | 73° |
| 2025-09-10 01:27 | 26.86938 | 88.65675 | 29046 ft | 475 kts | 59° |
| 2025-09-10 01:28 | 26.98152 | 88.87681 | 25333 ft | 455 kts | 75° |
| 2025-09-10 01:29 | 26.99055 | 88.94605 | 24384 ft | 448 kts | 83° |
| 2025-09-10 01:30 | 27.00142 | 89.04858 | 22865 ft | 436 kts | 83° |
| 2025-09-10 01:30 | 27.00856 | 89.11566 | 21793 ft | 430 kts | 83° |
| 2025-09-10 01:31 | 27.01546 | 89.18189 | 20756 ft | 425 kts | 83° |
| 2025-09-10 01:31 | 27.01884 | 89.21485 | 20247 ft | 424 kts | 83° |
| 2025-09-10 01:32 | 27.02893 | 89.31269 | 18776 ft | 419 kts | 83° |
| 2025-09-10 01:32 | 27.03560 | 89.37748 | 17743 ft | 417 kts | 83° |
| 2025-09-10 01:33 | 27.04214 | 89.44103 | 16657 ft | 403 kts | 82° |
| 2025-09-10 01:33 | 27.04971 | 89.47060 | 16141 ft | 390 kts | 62° |
| 2025-09-10 01:34 | 27.11303 | 89.51285 | 14860 ft | 353 kts | 358° |
| 2025-09-10 01:34 | 27.18220 | 89.51000 | 14212 ft | 313 kts | 357° |
| 2025-09-10 01:35 | 27.20364 | 89.50912 | 13995 ft | 303 kts | 357° |
| 2025-09-10 01:35 | 27.24436 | 89.50746 | 13618 ft | 281 kts | 358° |
| 2025-09-10 01:36 | 27.28168 | 89.50587 | 13632 ft | 257 kts | 356° |
| 2025-09-10 01:36 | 27.31419 | 89.49382 | 13658 ft | 242 kts | 326° |
| 2025-09-10 01:37 | 27.33975 | 89.47312 | 13638 ft | 211 kts | 324° |
| 2025-09-10 01:37 | 27.37527 | 89.44442 | 12718 ft | 216 kts | 324° |
| 2025-09-10 01:38 | 27.39936 | 89.42515 | 12203 ft | 208 kts | 326° |
| 2025-09-10 01:38 | 27.40892 | 89.41367 | 12001 ft | 197 kts | 300° |
| 2025-09-10 01:39 | 27.41989 | 89.38851 | 11734 ft | 169 kts | 289° |
| 2025-09-10 01:39 | 27.42716 | 89.36369 | 11350 ft | 167 kts | 283° |
| 2025-09-10 01:40 | 27.43566 | 89.33981 | 10663 ft | 169 kts | 320° |
| 2025-09-10 01:40 | 27.45566 | 89.34515 | 9981 ft | 161 kts | 54° |
| 2025-09-10 01:41 | 27.45708 | 89.36928 | 9593 ft | 162 kts | 111° |
| 2025-09-10 01:41 | 27.44022 | 89.40207 | 8400 ft | 163 kts | 120° |
| 2025-09-10 01:42 | 27.43274 | 89.41138 | 7994 ft | 160 kts | 146° |
| 2025-09-10 01:42 | 27.41238 | 89.41889 | 7523 ft | 155 kts | 152° |
| 2025-09-10 01:43 | 27.39552 | 89.42931 | 7620 ft | 141 kts | 154° |
| 2025-09-10 01:43 | 27.37798 | 89.44189 | 8726 ft | 162 kts | 142° |
| 2025-09-10 01:44 | 27.35720 | 89.45597 | 9932 ft | 189 kts | 145° |
| 2025-09-10 01:44 | 27.33758 | 89.47846 | 10773 ft | 218 kts | 117° |
| 2025-09-10 01:44 | 27.33203 | 89.49478 | 10979 ft | 239 kts | 100° |
| 2025-09-10 01:45 | 27.29854 | 89.56161 | 13518 ft | 262 kts | 157° |
| 2025-09-10 01:46 | 27.28065 | 89.56526 | 14185 ft | 264 kts | 175° |
| 2025-09-10 01:46 | 27.24362 | 89.56777 | 15492 ft | 270 kts | 167° |
| 2025-09-10 01:47 | 27.20548 | 89.56973 | 16002 ft | 276 kts | 175° |
| 2025-09-10 01:47 | 27.16726 | 89.57102 | 15996 ft | 275 kts | 180° |
| 2025-09-10 01:48 | 27.12913 | 89.56810 | 15936 ft | 274 kts | 178° |
| 2025-09-10 01:48 | 27.09133 | 89.57280 | 15921 ft | 273 kts | 173° |
| 2025-09-10 01:48 | 27.07246 | 89.57565 | 15912 ft | 273 kts | 173° |
| 2025-09-10 01:49 | 27.03476 | 89.58137 | 15902 ft | 273 kts | 173° |
| 2025-09-10 01:50 | 26.97827 | 89.59000 | 15881 ft | 273 kts | 173° |
| 2025-09-10 01:50 | 26.94057 | 89.59582 | 15867 ft | 273 kts | 173° |
| 2025-09-10 01:51 | 26.90293 | 89.60164 | 15848 ft | 274 kts | 173° |
| 2025-09-10 01:51 | 26.86516 | 89.60749 | 15837 ft | 274 kts | 173° |
| 2025-09-10 01:52 | 26.82734 | 89.61165 | 15816 ft | 272 kts | 188° |
| 2025-09-10 01:52 | 26.80951 | 89.60508 | 15813 ft | 271 kts | 212° |
| 2025-09-10 01:53 | 26.78834 | 89.55166 | 15818 ft | 267 kts | 284° |
| 2025-09-10 01:53 | 26.82691 | 89.51185 | 15830 ft | 270 kts | 354° |
| 2025-09-10 01:54 | 26.84571 | 89.51219 | 15836 ft | 271 kts | 3° |
| 2025-09-10 01:54 | 26.90224 | 89.51597 | 15854 ft | 272 kts | 2° |
| 2025-09-10 01:55 | 26.92114 | 89.51718 | 15864 ft | 272 kts | 3° |
| 2025-09-10 01:55 | 26.95863 | 89.51963 | 15871 ft | 264 kts | 3° |
| 2025-09-10 01:56 | 26.99453 | 89.52198 | 15905 ft | 251 kts | 3° |
| 2025-09-10 01:56 | 27.01169 | 89.52310 | 15893 ft | 244 kts | 3° |
| 2025-09-10 01:56 | 27.04491 | 89.52529 | 15906 ft | 227 kts | 3° |
| 2025-09-10 01:57 | 27.07579 | 89.52730 | 15454 ft | 222 kts | 2° |
| 2025-09-10 01:58 | 27.12178 | 89.52650 | 14647 ft | 220 kts | 353° |
| 2025-09-10 01:58 | 27.15217 | 89.52293 | 14121 ft | 219 kts | 353° |
| 2025-09-10 01:59 | 27.17728 | 89.52000 | 13645 ft | 215 kts | 353° |
| 2025-09-10 01:59 | 27.20567 | 89.51669 | 13070 ft | 191 kts | 353° |
| 2025-09-10 01:59 | 27.22248 | 89.51606 | 12684 ft | 175 kts | 2° |
| 2025-09-10 02:00 | 27.24190 | 89.51963 | 12201 ft | 165 kts | 15° |
| 2025-09-10 02:00 | 27.26281 | 89.53000 | 11556 ft | 163 kts | 22° |
| 2025-09-10 02:01 | 27.30559 | 89.53106 | 10605 ft | 159 kts | 330° |
| 2025-09-10 02:02 | 27.31435 | 89.52368 | 10426 ft | 159 kts | 308° |
| 2025-09-10 02:02 | 27.33174 | 89.49110 | 9148 ft | 164 kts | 301° |
| 2025-09-10 02:03 | 27.33818 | 89.48069 | 8790 ft | 161 kts | 311° |
| 2025-09-10 02:03 | 27.35683 | 89.46802 | 8286 ft | 155 kts | 321° |
| 2025-09-10 02:04 | 27.37448 | 89.45420 | 7884 ft | 154 kts | 309° |
| 2025-09-10 02:04 | 27.38128 | 89.44509 | 7728 ft | 152 kts | 298° |
| 2025-09-10 02:05 | 27.40473 | 89.42368 | 7349 ft | 92 kts | 331° |
| 2025-09-10 02:05 | 27.40815 | 89.42074 | 7362 ft | 7 kts | 238° |
| 2025-09-10 02:06 | 27.40780 | 89.42073 | 7360 ft | 5 kts | 133° |
| 2025-09-10 02:06 | 27.40747 | 89.42099 | 7359 ft | 5 kts | 152° |
| 2025-09-10 02:07 | 27.40684 | 89.42115 | 7357 ft | 3 kts | 246° |
| 2025-09-10 02:07 | 27.40667 | 89.42078 | 7357 ft | 0 kts | 244° |